Andrew, Canada
Current Conditions -  °F | °C
As of 2:00 PM on Friday 24 Oct 2014 (Local Time) from CYED Reporting Station
Few Clouds Few Clouds  
Wind Chill: 50°   Ceiling: Unl
Heat Index: 50°   Visibility: 9mi
Dew Point: 23°   Wind: 21mph
Humidity: 35%   Direction: 280°W
Pressure: 29.84"   Gusts: 31mph
Location:  53.88°N, 112.33°W
Report Text: CYED 242000Z AUTO 28018G27KT 9SM FEW059 10/M05 A2984 RMKSLP123
Loading
Personal Weather Stations






























Interactive Weather Map
Tropical Storm Tracking
New forecast layout! Learn more

10-Day Weather Forecast

Advertisements
Track Severe Weather on mobile